createdAt,value
2019-02-14T00:02:06.935Z,19.95
2019-02-14T00:04:43.623Z,19.95
2019-02-14T00:07:20.403Z,19.70
2019-02-14T00:09:57.173Z,19.87
2019-02-14T00:12:34.060Z,19.62
2019-02-14T00:15:14.879Z,18.92
2019-02-14T00:17:51.588Z,19.20
2019-02-14T00:20:28.380Z,18.92
2019-02-14T00:23:05.258Z,18.00
2019-02-14T00:25:42.010Z,17.73
2019-02-14T00:28:18.808Z,17.70
2019-02-14T00:30:55.582Z,18.42
2019-02-14T00:33:32.348Z,19.07
2019-02-14T00:36:09.427Z,17.40
2019-02-14T00:38:46.201Z,17.70
2019-02-14T00:41:22.986Z,17.87
2019-02-14T00:43:59.752Z,16.95
2019-02-14T00:46:36.750Z,16.62
2019-02-14T00:49:13.528Z,17.62
2019-02-14T00:51:50.388Z,17.15
2019-02-14T00:54:27.170Z,15.72
2019-02-14T00:57:04.971Z,16.27
2019-02-14T00:59:41.738Z,14.63
2019-02-14T01:02:18.634Z,15.83
2019-02-14T01:04:55.508Z,15.30
2019-02-14T01:07:32.282Z,14.30
2019-02-14T01:10:09.057Z,13.70
2019-02-14T01:12:45.837Z,14.13
2019-02-14T01:15:23.630Z,12.03
2019-02-14T01:18:00.341Z,11.60
2019-02-14T01:20:37.087Z,13.45
2019-02-14T01:23:13.857Z,13.38
2019-02-14T01:25:50.622Z,12.78
2019-02-14T01:28:28.432Z,13.70
2019-02-14T01:31:05.212Z,13.10
2019-02-14T01:33:42.094Z,12.88
2019-02-14T01:36:18.757Z,13.15
2019-02-14T01:38:55.536Z,13.48
2019-02-14T01:41:32.305Z,12.53
2019-02-14T01:44:09.077Z,12.80
2019-02-14T01:46:45.760Z,12.13
2019-02-14T01:49:22.520Z,14.60
2019-02-14T01:51:59.416Z,12.35
2019-02-14T01:54:36.187Z,11.10
2019-02-14T01:57:12.961Z,13.15
2019-02-14T01:59:49.742Z,11.25
2019-02-14T02:02:26.514Z,11.53
2019-02-14T02:05:03.172Z,12.35
2019-02-14T02:07:40.879Z,13.03
2019-02-14T02:10:17.592Z,12.63
2019-02-14T02:12:54.626Z,13.30
2019-02-14T02:15:31.299Z,12.20
2019-02-14T02:18:08.087Z,12.13
2019-02-14T02:20:44.865Z,13.48
2019-02-14T02:23:21.746Z,12.65
2019-02-14T02:25:58.514Z,12.65
2019-02-14T02:28:35.292Z,14.43
2019-02-14T02:31:12.068Z,12.80
2019-02-14T02:33:48.837Z,11.70
2019-02-14T02:36:25.612Z,13.28
2019-02-14T02:39:02.382Z,12.30
2019-02-14T02:41:40.692Z,12.68
2019-02-14T02:44:17.583Z,11.97
2019-02-14T02:46:54.287Z,13.15
2019-02-14T02:49:31.141Z,12.90
2019-02-14T02:52:08.314Z,12.47
2019-02-14T02:54:45.091Z,13.22
2019-02-14T02:57:21.868Z,13.28
2019-02-14T02:59:58.652Z,14.55
2019-02-14T03:02:35.529Z,13.53
2019-02-14T03:05:16.733Z,14.63
2019-02-14T03:07:53.577Z,13.48
2019-02-14T03:10:30.344Z,13.58
2019-02-14T03:13:07.231Z,13.55
2019-02-14T03:15:44.122Z,13.58
2019-02-14T03:18:20.890Z,14.23
2019-02-14T03:20:57.769Z,16.30
2019-02-14T03:23:34.642Z,15.55
2019-02-14T03:26:11.411Z,16.62
2019-02-14T03:28:49.207Z,14.58
2019-02-14T03:31:25.991Z,16.45
2019-02-14T03:34:02.758Z,15.00
2019-02-14T03:36:39.533Z,13.65
2019-02-14T03:39:16.309Z,14.45
2019-02-14T03:41:53.205Z,12.17
2019-02-14T03:44:29.969Z,13.80
2019-02-14T03:47:06.742Z,15.75
2019-02-14T03:49:43.525Z,16.37
2019-02-14T03:52:20.397Z,15.95
2019-02-14T03:54:57.180Z,22.60
2019-02-14T03:57:34.368Z,21.37
2019-02-14T04:00:18.933Z,16.07
2019-02-14T04:02:55.685Z,15.98
2019-02-14T04:05:32.462Z,17.02
2019-02-14T04:08:10.158Z,17.42
2019-02-14T04:10:46.934Z,18.48
2019-02-14T04:13:23.811Z,18.50
2019-02-14T04:16:00.596Z,19.35
2019-02-14T04:18:37.372Z,19.17
2019-02-14T04:21:14.140Z,19.92
2019-02-14T04:23:51.027Z,20.25
2019-02-14T04:26:27.791Z,21.00
2019-02-14T04:29:04.574Z,21.70
2019-02-14T04:31:41.451Z,21.85
2019-02-14T04:34:18.239Z,21.33
2019-02-14T04:36:55.886Z,20.05
2019-02-14T04:39:32.808Z,20.80
2019-02-14T04:42:09.945Z,21.82
2019-02-14T04:44:46.764Z,21.80
2019-02-14T04:47:23.548Z,19.42
2019-02-14T04:50:00.319Z,20.65
2019-02-14T04:52:37.185Z,22.07
2019-02-14T04:55:13.978Z,20.10
2019-02-14T04:57:50.839Z,20.27
2019-02-14T05:00:27.623Z,19.73
2019-02-14T05:03:04.507Z,20.52
2019-02-14T05:05:41.384Z,21.68
2019-02-14T05:08:18.147Z,21.68
2019-02-14T05:10:54.937Z,21.95
2019-02-14T05:13:31.647Z,21.20
2019-02-14T05:16:08.484Z,21.65
2019-02-14T05:18:45.253Z,22.27
2019-02-14T05:21:22.143Z,21.27
2019-02-14T05:23:58.915Z,22.87
2019-02-14T05:26:35.780Z,22.45
2019-02-14T05:29:12.561Z,23.90
2019-02-14T05:31:49.301Z,23.75
2019-02-14T05:34:26.015Z,22.27
2019-02-14T05:37:02.786Z,25.43
2019-02-14T05:39:39.570Z,24.02
2019-02-14T05:42:16.637Z,24.90
2019-02-14T05:44:53.311Z,26.80
2019-02-14T05:47:30.381Z,26.12
2019-02-14T05:50:10.463Z,27.30
2019-02-14T05:52:47.221Z,28.87
2019-02-14T05:55:24.001Z,22.77
2019-02-14T05:58:00.780Z,22.17
2019-02-14T06:00:37.580Z,24.45
2019-02-14T06:03:14.360Z,26.33
2019-02-14T06:05:51.110Z,28.12
2019-02-14T06:08:27.883Z,31.42
2019-02-14T06:11:04.659Z,33.05
2019-02-14T06:13:41.545Z,29.92
2019-02-14T06:16:18.517Z,28.42
2019-02-14T06:18:55.283Z,28.80
2019-02-14T06:21:32.272Z,30.82
2019-02-14T06:24:09.052Z,32.25
2019-02-14T06:26:45.828Z,28.92
2019-02-14T06:29:22.602Z,22.45
2019-02-14T06:31:59.367Z,25.70
2019-02-14T06:34:36.143Z,22.40
2019-02-14T06:37:12.923Z,23.05
2019-02-14T06:39:49.702Z,22.82
2019-02-14T06:42:26.572Z,23.98
2019-02-14T06:45:05.836Z,23.62
2019-02-14T06:47:43.610Z,23.42
2019-02-14T06:50:20.394Z,22.07
2019-02-14T06:52:57.054Z,24.15
2019-02-14T06:55:33.837Z,22.40
2019-02-14T06:58:12.817Z,26.35
2019-02-14T07:00:49.371Z,20.90
2019-02-14T07:03:26.110Z,21.23
2019-02-14T07:06:02.887Z,20.77
2019-02-14T07:08:39.670Z,21.45
2019-02-14T07:11:16.435Z,20.08
2019-02-14T07:13:53.310Z,19.55
2019-02-14T07:16:30.088Z,20.08
2019-02-14T07:19:06.867Z,21.60
2019-02-14T07:21:43.746Z,21.50
2019-02-14T07:24:20.524Z,21.87
2019-02-14T07:26:58.323Z,19.40
2019-02-14T07:29:35.102Z,22.55
2019-02-14T07:32:11.977Z,22.17
2019-02-14T07:34:48.748Z,22.50
2019-02-14T07:37:27.031Z,22.22
2019-02-14T07:40:04.337Z,23.42
2019-02-14T07:42:41.118Z,23.07
2019-02-14T07:45:18.618Z,22.17
2019-02-14T07:47:55.380Z,23.15
2019-02-14T07:50:32.174Z,22.07
2019-02-14T07:53:09.047Z,24.43
2019-02-14T07:55:45.810Z,24.77
2019-02-14T07:58:22.586Z,23.22
2019-02-14T08:00:59.479Z,23.18
2019-02-14T08:03:36.239Z,26.30
2019-02-14T08:06:13.017Z,28.10
2019-02-14T08:08:49.797Z,25.90
2019-02-14T08:11:26.567Z,27.22
2019-02-14T08:14:03.355Z,26.57
2019-02-14T08:16:40.127Z,24.12
2019-02-14T08:19:20.081Z,25.08
2019-02-14T08:22:14.597Z,23.52
2019-02-14T08:24:51.346Z,22.65
2019-02-14T08:27:28.110Z,22.87
2019-02-14T08:30:07.563Z,24.25
2019-02-14T08:32:44.438Z,21.37
2019-02-14T08:35:21.205Z,20.80
2019-02-14T08:37:58.191Z,20.35
2019-02-14T08:40:35.381Z,21.33
2019-02-14T08:43:12.142Z,20.90
2019-02-14T08:45:48.927Z,20.37
2019-02-14T08:48:25.708Z,23.27
2019-02-14T08:51:02.469Z,26.15
2019-02-14T08:53:39.346Z,26.00
2019-02-14T08:56:16.134Z,26.95
2019-02-14T08:58:53.307Z,27.27
2019-02-14T09:01:30.097Z,26.17
2019-02-14T09:04:06.869Z,28.47
2019-02-14T09:06:43.643Z,28.85
2019-02-14T09:09:20.414Z,30.25
2019-02-14T09:11:57.304Z,26.45
2019-02-14T09:14:34.063Z,27.58
2019-02-14T09:17:10.854Z,27.98
2019-02-14T09:19:48.567Z,25.35
2019-02-14T09:22:25.312Z,24.47
2019-02-14T09:25:02.094Z,24.30
2019-02-14T09:27:39.187Z,22.90
2019-02-14T09:30:16.981Z,25.27
2019-02-14T09:32:53.852Z,23.38
2019-02-14T09:35:30.639Z,26.50
2019-02-14T09:38:07.398Z,24.12
2019-02-14T09:40:45.210Z,24.57
2019-02-14T09:43:29.600Z,24.40
2019-02-14T09:46:00.616Z,28.23
2019-02-14T09:48:37.291Z,21.17
2019-02-14T09:51:14.522Z,24.47
2019-02-14T09:53:51.311Z,21.65
2019-02-14T09:56:28.007Z,21.87
2019-02-14T09:59:06.348Z,21.27
2019-02-14T10:01:43.199Z,28.90
2019-02-14T10:04:19.976Z,21.15
2019-02-14T10:06:56.752Z,26.23
2019-02-14T10:09:33.534Z,23.92
2019-02-14T10:12:10.301Z,25.05
2019-02-14T10:14:47.081Z,22.55
2019-02-14T10:17:23.852Z,22.17
2019-02-14T10:20:00.634Z,23.18
2019-02-14T10:22:37.505Z,21.70
2019-02-14T10:25:14.590Z,20.30
2019-02-14T10:27:51.373Z,21.87
2019-02-14T10:30:28.131Z,25.02
2019-02-14T10:33:04.915Z,23.73
2019-02-14T10:35:41.700Z,26.52
2019-02-14T10:38:22.458Z,29.07
2019-02-14T10:40:56.990Z,30.08
2019-02-14T10:43:33.759Z,34.83
2019-02-14T10:46:10.838Z,26.02
2019-02-14T10:48:47.609Z,23.73
2019-02-14T10:51:24.458Z,36.15
2019-02-14T10:54:01.160Z,22.42
2019-02-14T10:56:37.943Z,49.23
2019-02-14T10:59:14.728Z,18.98
2019-02-14T11:01:51.603Z,19.87
2019-02-14T11:04:28.437Z,19.37
2019-02-14T11:07:05.144Z,22.35
2019-02-14T11:09:41.927Z,20.62
2019-02-14T11:12:18.810Z,21.27
2019-02-14T11:14:55.578Z,21.97
2019-02-14T11:17:33.369Z,25.15
2019-02-14T11:20:13.358Z,27.25
2019-02-14T11:22:50.213Z,23.62
2019-02-14T11:25:34.960Z,25.08
2019-02-14T11:28:11.842Z,20.10
2019-02-14T11:30:48.627Z,21.17
2019-02-14T11:33:25.427Z,22.85
2019-02-14T11:36:02.169Z,24.23
2019-02-14T11:38:40.869Z,24.72
2019-02-14T11:41:17.763Z,42.60
2019-02-14T11:43:54.744Z,57.90
2019-02-14T11:46:31.418Z,32.65
2019-02-14T11:49:08.603Z,32.13
2019-02-14T11:51:45.391Z,27.17
2019-02-14T11:54:22.156Z,23.27
2019-02-14T11:56:58.950Z,26.68
2019-02-14T11:59:35.704Z,24.30
2019-02-14T12:02:12.700Z,25.27
2019-02-14T12:04:49.475Z,23.90
2019-02-14T12:07:26.244Z,25.23
2019-02-14T12:10:03.022Z,26.05
2019-02-14T12:12:39.898Z,27.58
2019-02-14T12:15:16.687Z,30.35
2019-02-14T12:17:53.441Z,28.83
2019-02-14T12:20:30.276Z,30.40
2019-02-14T12:23:09.158Z,35.90
2019-02-14T12:25:46.440Z,34.20
2019-02-14T12:28:24.974Z,26.33
2019-02-14T12:31:01.834Z,29.72
2019-02-14T12:33:38.712Z,26.07
2019-02-14T12:36:15.509Z,27.10
2019-02-14T12:38:52.258Z,28.70
2019-02-14T12:41:29.048Z,28.98
2019-02-14T12:44:05.818Z,26.85
2019-02-14T12:46:42.585Z,28.32
2019-02-14T12:49:19.371Z,29.45
2019-02-14T12:51:56.241Z,25.80
2019-02-14T12:54:33.024Z,27.93
2019-02-14T12:57:09.800Z,25.05
2019-02-14T12:59:46.678Z,26.12
2019-02-14T13:02:23.542Z,24.57
2019-02-14T13:05:00.419Z,22.77
2019-02-14T13:07:37.208Z,24.82
2019-02-14T13:10:17.658Z,28.13
2019-02-14T13:12:54.512Z,30.23
2019-02-14T13:15:31.328Z,33.25
2019-02-14T13:18:08.088Z,28.00
2019-02-14T13:20:44.880Z,29.87
2019-02-14T13:23:21.951Z,28.87
2019-02-14T13:25:58.837Z,29.63
2019-02-14T13:28:35.610Z,25.92
2019-02-14T13:31:12.388Z,26.45
2019-02-14T13:33:49.256Z,31.62
2019-02-14T13:36:26.032Z,28.17
2019-02-14T13:39:04.347Z,28.73
2019-02-14T13:41:42.252Z,28.90
2019-02-14T13:44:19.023Z,31.70
2019-02-14T13:46:55.801Z,32.45
2019-02-14T13:49:32.891Z,31.27
2019-02-14T13:52:09.866Z,34.98
2019-02-14T13:54:46.636Z,34.63
2019-02-14T13:57:23.467Z,31.57
2019-02-14T14:00:00.337Z,30.97
2019-02-14T14:02:37.895Z,30.55
2019-02-14T14:05:14.661Z,29.85
2019-02-14T14:07:51.429Z,31.50
2019-02-14T14:10:28.224Z,29.23
2019-02-14T14:13:05.403Z,31.52
2019-02-14T14:15:42.186Z,27.48
2019-02-14T14:18:19.008Z,31.02
2019-02-14T14:20:55.733Z,33.35
2019-02-14T14:23:32.611Z,33.02
2019-02-14T14:26:09.369Z,33.40
2019-02-14T14:28:46.148Z,30.30
2019-02-14T14:31:22.933Z,38.23
2019-02-14T14:34:00.837Z,29.37
2019-02-14T14:36:37.613Z,29.63
2019-02-14T14:39:14.384Z,29.27
2019-02-14T14:41:51.164Z,29.23
2019-02-14T14:44:29.584Z,28.55
2019-02-14T14:47:07.893Z,30.57
2019-02-14T14:49:44.595Z,25.27
2019-02-14T14:52:21.446Z,26.48
2019-02-14T14:54:58.211Z,26.27
2019-02-14T14:57:34.991Z,27.50
2019-02-14T15:00:11.970Z,29.13
2019-02-14T15:02:49.078Z,29.35
2019-02-14T15:05:25.831Z,37.45
2019-02-14T15:08:02.604Z,45.28
2019-02-14T15:10:39.382Z,44.03
2019-02-14T15:13:16.096Z,41.77
2019-02-14T15:15:52.926Z,36.13
2019-02-14T15:18:29.704Z,39.65
2019-02-14T15:21:06.472Z,32.65
2019-02-14T15:23:43.262Z,30.72
2019-02-14T15:26:20.021Z,32.65
2019-02-14T15:28:57.674Z,29.65
2019-02-14T15:31:34.514Z,27.82
2019-02-14T15:34:12.160Z,29.70
2019-02-14T15:36:49.512Z,28.75
2019-02-14T15:39:27.429Z,30.15
2019-02-14T15:42:04.217Z,32.83
2019-02-14T15:44:40.971Z,31.73
2019-02-14T15:47:17.687Z,30.75
2019-02-14T15:49:54.355Z,29.57
2019-02-14T15:52:32.321Z,30.17
2019-02-14T15:55:09.259Z,33.30
2019-02-14T15:57:45.952Z,37.08
2019-02-14T16:00:23.146Z,31.03
2019-02-14T16:02:59.869Z,28.23
2019-02-14T16:05:38.475Z,31.62
2019-02-14T16:08:15.085Z,34.67
2019-02-14T16:10:54.046Z,33.83
2019-02-14T16:13:31.711Z,32.08
2019-02-14T16:16:08.724Z,37.13
2019-02-14T16:18:46.689Z,32.28
2019-02-14T16:21:23.845Z,34.25
2019-02-14T16:24:00.576Z,34.48
2019-02-14T16:26:38.900Z,42.95
2019-02-14T16:29:15.600Z,39.05
2019-02-14T16:31:52.280Z,41.75
2019-02-14T16:34:28.993Z,39.80
2019-02-14T16:37:06.231Z,45.23
2019-02-14T16:39:51.656Z,51.60
2019-02-14T16:42:21.601Z,58.90
2019-02-14T16:44:58.514Z,59.45
2019-02-14T16:47:35.327Z,52.23
2019-02-14T16:50:12.024Z,46.63
2019-02-14T16:52:48.733Z,48.52
2019-02-14T16:55:25.651Z,48.23
2019-02-14T16:58:02.395Z,49.88
2019-02-14T17:00:39.104Z,48.17
2019-02-14T17:03:16.000Z,44.15
2019-02-14T17:05:52.717Z,49.27
2019-02-14T17:08:29.474Z,49.55
2019-02-14T17:11:06.164Z,50.23
2019-02-14T17:13:42.871Z,45.80
2019-02-14T17:16:20.617Z,45.78
2019-02-14T17:18:57.333Z,41.73
2019-02-14T17:21:34.074Z,41.35
2019-02-14T17:24:10.804Z,42.53
2019-02-14T17:26:47.481Z,40.65
2019-02-14T17:29:24.199Z,40.63
2019-02-14T17:32:00.911Z,43.68
2019-02-14T17:34:37.619Z,41.40
2019-02-14T17:37:14.347Z,43.28
2019-02-14T17:39:51.015Z,48.42
2019-02-14T17:42:27.717Z,49.33
2019-02-14T17:45:05.112Z,59.05
2019-02-14T17:47:41.824Z,53.65
2019-02-14T17:50:18.554Z,47.37
2019-02-14T17:52:55.342Z,41.35
2019-02-14T17:55:32.084Z,48.08
2019-02-14T17:58:08.794Z,58.65
2019-02-14T18:00:45.563Z,43.10
2019-02-14T18:03:22.346Z,47.80
2019-02-14T18:05:59.276Z,72.22
2019-02-14T18:08:35.991Z,76.70
2019-02-14T18:11:12.729Z,73.22
2019-02-14T18:13:49.435Z,93.27
2019-02-14T18:16:26.173Z,98.42
2019-02-14T18:19:03.287Z,68.57
2019-02-14T18:21:40.096Z,74.97
2019-02-14T18:24:16.931Z,67.37
2019-02-14T18:26:53.698Z,69.00
2019-02-14T18:29:30.490Z,61.75
2019-02-14T18:32:07.258Z,45.17
2019-02-14T18:34:43.946Z,49.15
2019-02-14T18:37:20.619Z,51.15
2019-02-14T18:39:57.295Z,49.77
2019-02-14T18:42:34.047Z,50.80
2019-02-14T18:45:13.511Z,51.28
2019-02-14T18:47:50.321Z,57.93
2019-02-14T18:50:26.986Z,51.63
2019-02-14T18:53:04.054Z,46.25
2019-02-14T18:55:40.762Z,49.45
2019-02-14T18:58:26.092Z,45.10
2019-02-14T19:00:55.827Z,42.53
2019-02-14T19:03:32.567Z,44.95
2019-02-14T19:06:09.255Z,45.20
2019-02-14T19:08:46.031Z,47.25
2019-02-14T19:11:22.745Z,50.78
2019-02-14T19:13:59.570Z,54.18
2019-02-14T19:16:36.263Z,56.20
2019-02-14T19:19:13.014Z,59.50
2019-02-14T19:21:49.721Z,65.57
2019-02-14T19:24:26.522Z,64.95
2019-02-14T19:27:03.243Z,64.75
2019-02-14T19:29:39.969Z,72.20
2019-02-14T19:32:16.652Z,74.65
2019-02-14T19:34:53.365Z,86.10
2019-02-14T19:37:30.101Z,78.20
2019-02-14T19:40:09.087Z,74.58
2019-02-14T19:42:45.885Z,70.92
2019-02-14T19:45:22.562Z,69.77
2019-02-14T19:47:59.481Z,88.58
2019-02-14T19:50:36.232Z,85.00
2019-02-14T19:53:12.948Z,60.05
2019-02-14T19:55:49.674Z,62.40
2019-02-14T19:58:26.418Z,73.70
2019-02-14T20:01:03.257Z,77.32
2019-02-14T20:03:40.058Z,87.65
2019-02-14T20:06:16.770Z,83.05
2019-02-14T20:08:53.521Z,82.80
2019-02-14T20:11:36.648Z,81.78
2019-02-14T20:14:08.673Z,81.37
2019-02-14T20:16:45.419Z,77.20
2019-02-14T20:19:22.098Z,70.47
2019-02-14T20:21:58.813Z,61.88
2019-02-14T20:24:35.517Z,58.68
2019-02-14T20:27:12.291Z,54.45
2019-02-14T20:29:48.981Z,49.75
2019-02-14T20:32:25.713Z,48.30
2019-02-14T20:35:02.396Z,46.92
2019-02-14T20:37:40.889Z,49.35
2019-02-14T20:40:17.602Z,52.63
2019-02-14T20:42:54.919Z,59.30
2019-02-14T20:45:31.746Z,75.08
2019-02-14T20:48:08.742Z,71.72
2019-02-14T20:50:46.610Z,61.95
2019-02-14T20:53:24.731Z,63.92
2019-02-14T20:56:01.815Z,65.45
2019-02-14T20:58:38.890Z,61.68
2019-02-14T21:01:15.636Z,68.80
2019-02-14T21:03:52.551Z,68.70
2019-02-14T21:06:30.364Z,66.35
2019-02-14T21:09:07.392Z,74.45
2019-02-14T21:11:54.199Z,75.50
2019-02-14T21:14:24.051Z,86.97
2019-02-14T21:17:00.777Z,67.70
2019-02-14T21:19:38.630Z,65.28
2019-02-14T21:22:18.632Z,56.40
2019-02-14T21:24:53.794Z,51.88
2019-02-14T21:27:35.106Z,51.05
2019-02-14T21:30:14.904Z,52.15
2019-02-14T21:32:51.815Z,56.05
2019-02-14T21:35:28.706Z,55.55
2019-02-14T21:38:05.474Z,49.80
2019-02-14T21:40:42.473Z,51.63
2019-02-14T21:43:19.762Z,50.15
2019-02-14T21:45:56.451Z,50.78
2019-02-14T21:48:33.149Z,50.05
2019-02-14T21:51:10.139Z,51.35
2019-02-14T21:53:47.052Z,49.65
2019-02-14T21:56:23.935Z,49.35
2019-02-14T21:59:00.816Z,48.17
2019-02-14T22:01:37.885Z,48.52
2019-02-14T22:04:14.686Z,45.23
2019-02-14T22:06:51.448Z,44.15
2019-02-14T22:09:28.205Z,47.30
2019-02-14T22:12:05.111Z,47.50
2019-02-14T22:14:41.866Z,42.95
2019-02-14T22:17:18.936Z,44.65
2019-02-14T22:19:55.721Z,53.80
2019-02-14T22:22:33.538Z,55.70
2019-02-14T22:25:11.668Z,51.73
2019-02-14T22:27:48.410Z,50.50
2019-02-14T22:30:25.235Z,48.38
2019-02-14T22:33:02.063Z,49.13
2019-02-14T22:35:38.823Z,49.20
2019-02-14T22:38:15.611Z,51.98
2019-02-14T22:40:52.389Z,52.93
2019-02-14T22:43:29.162Z,49.35
2019-02-14T22:46:05.893Z,52.35
2019-02-14T22:48:42.714Z,56.33
2019-02-14T22:51:19.494Z,61.02
2019-02-14T22:53:56.371Z,58.42
2019-02-14T22:56:33.139Z,55.05
2019-02-14T22:59:09.905Z,54.83
2019-02-14T23:01:46.792Z,56.40
2019-02-14T23:04:23.668Z,55.92
2019-02-14T23:07:00.446Z,45.58
2019-02-14T23:09:37.219Z,46.37
2019-02-14T23:12:13.999Z,44.58
2019-02-14T23:14:50.777Z,47.75
2019-02-14T23:17:27.846Z,47.58
2019-02-14T23:20:06.946Z,46.10
2019-02-14T23:22:43.768Z,44.42
2019-02-14T23:25:20.543Z,44.20
2019-02-14T23:27:57.513Z,44.65
2019-02-14T23:30:34.288Z,42.88
2019-02-14T23:33:11.061Z,44.40
2019-02-14T23:35:47.847Z,43.45
2019-02-14T23:38:24.625Z,46.18
2019-02-14T23:41:01.592Z,46.10
2019-02-14T23:43:38.476Z,48.00
2019-02-14T23:46:15.244Z,48.83
2019-02-14T23:48:52.033Z,48.80
2019-02-14T23:51:28.906Z,47.70
2019-02-14T23:54:05.781Z,46.42
2019-02-14T23:56:42.555Z,48.33
2019-02-14T23:59:19.446Z,50.88
